createdAt,value
2018-12-18T00:00:37.935Z,99995.46
2018-12-18T00:05:44.904Z,99990.66
2018-12-18T00:11:04.094Z,99990.32
2018-12-18T00:16:10.391Z,99983.03
2018-12-18T00:21:15.802Z,99989.38
2018-12-18T00:26:21.007Z,99981.62
2018-12-18T00:31:26.363Z,99986.88
2018-12-18T00:36:32.512Z,99974.62
2018-12-18T00:41:37.913Z,99968.98
2018-12-18T00:46:43.546Z,99975.18
2018-12-18T00:51:48.468Z,99980.59
2018-12-18T00:56:53.415Z,99992.77
2018-12-18T01:02:01.849Z,99983.19
2018-12-18T01:07:07.250Z,99982.67
2018-12-18T01:12:12.193Z,99983.03
2018-12-18T01:17:17.228Z,99981.85
2018-12-18T01:22:22.259Z,99991.98
2018-12-18T01:27:27.265Z,100000.84
2018-12-18T01:32:32.255Z,99995.19
2018-12-18T01:37:37.326Z,99997.73
2018-12-18T01:42:42.176Z,99994.66
2018-12-18T01:47:47.169Z,99985.17
2018-12-18T01:52:52.187Z,99991.38
2018-12-18T01:57:57.121Z,99988.16
2018-12-18T02:03:02.047Z,99990.80
2018-12-18T02:08:07.131Z,99995.28
2018-12-18T02:13:12.100Z,99990.20
2018-12-18T02:18:17.352Z,99982.50
2018-12-18T02:23:22.221Z,99990.41
2018-12-18T02:28:27.335Z,100000.77
2018-12-18T02:33:32.496Z,100005.56
2018-12-18T02:38:38.503Z,100000.17
2018-12-18T02:43:44.330Z,100006.30
2018-12-18T02:48:49.549Z,100010.78
2018-12-18T02:53:54.679Z,100011.09
2018-12-18T02:58:59.634Z,100014.94
2018-12-18T03:04:04.849Z,100026.42
2018-12-18T03:09:10.075Z,100032.39
2018-12-18T03:14:16.000Z,100029.56
2018-12-18T03:19:20.984Z,100015.88
2018-12-18T03:24:26.098Z,100007.25
2018-12-18T03:29:31.105Z,100010.30
2018-12-18T03:34:36.106Z,99997.34
2018-12-18T03:39:41.217Z,99999.13
2018-12-18T03:44:46.566Z,100006.70
2018-12-18T03:49:52.119Z,100002.93
2018-12-18T03:54:57.028Z,100005.06
2018-12-18T04:00:02.147Z,100015.57
2018-12-18T04:05:10.445Z,100013.36
2018-12-18T04:10:15.491Z,100009.78
2018-12-18T04:15:20.794Z,100012.75
2018-12-18T04:20:26.019Z,100011.39
2018-12-18T04:25:31.887Z,100024.28
2018-12-18T04:30:36.863Z,100013.13
2018-12-18T04:35:41.800Z,100023.34
2018-12-18T04:40:47.570Z,100023.17
2018-12-18T04:45:52.796Z,100022.33
2018-12-18T04:50:57.812Z,100029.25
2018-12-18T04:56:03.430Z,100027.67
2018-12-18T05:01:08.666Z,100031.91
2018-12-18T05:06:13.701Z,100041.34
2018-12-18T05:11:18.674Z,100042.06
2018-12-18T05:16:23.695Z,100040.34
2018-12-18T05:21:28.881Z,100047.23
2018-12-18T05:26:33.808Z,100042.89
2018-12-18T05:31:38.861Z,100051.55
2018-12-18T05:36:43.794Z,100058.09
2018-12-18T05:41:48.837Z,100055.17
2018-12-18T05:46:53.801Z,100051.02
2018-12-18T05:52:05.517Z,100063.32
2018-12-18T05:57:11.311Z,100059.82
2018-12-18T06:02:16.216Z,100059.27
2018-12-18T06:07:23.608Z,100070.03
2018-12-18T06:12:28.596Z,100077.56
2018-12-18T06:17:34.867Z,100084.09
2018-12-18T06:22:41.178Z,100085.98
2018-12-18T06:27:46.539Z,100089.13
2018-12-18T06:32:52.516Z,100079.62
2018-12-18T06:37:57.609Z,100087.39
2018-12-18T06:43:03.808Z,100100.91
2018-12-18T06:48:08.835Z,100105.23
2018-12-18T06:53:14.027Z,100105.23
2018-12-18T06:58:19.168Z,100110.19
2018-12-18T07:03:24.399Z,100105.23
2018-12-18T07:08:29.711Z,100113.83
2018-12-18T07:13:34.752Z,100113.20
2018-12-18T07:18:39.695Z,100121.89
2018-12-18T07:23:44.704Z,100126.02
2018-12-18T07:28:50.036Z,100129.13
2018-12-18T07:33:55.229Z,100127.78
2018-12-18T07:39:00.429Z,100128.67
2018-12-18T07:44:07.234Z,100121.44
2018-12-18T07:49:12.317Z,100126.22
2018-12-18T07:54:17.260Z,100125.51
2018-12-18T07:59:22.211Z,100111.39
2018-12-18T08:04:27.212Z,100118.28
2018-12-18T08:09:32.203Z,100126.61
2018-12-18T08:14:37.172Z,100128.13
2018-12-18T08:19:42.236Z,100124.95
2018-12-18T08:24:47.193Z,100133.01
2018-12-18T08:29:52.187Z,100130.17
2018-12-18T08:34:57.277Z,100132.18
2018-12-18T08:40:02.411Z,100139.42
2018-12-18T08:45:09.574Z,100143.19
2018-12-18T08:50:14.855Z,100148.02
2018-12-18T08:55:20.193Z,100156.71
2018-12-18T09:00:25.314Z,100171.05
2018-12-18T09:05:30.379Z,100161.61
2018-12-18T09:10:39.830Z,100156.27
2018-12-18T09:16:00.419Z,100153.83
2018-12-18T09:21:05.647Z,100152.91
2018-12-18T09:26:12.060Z,100151.95
2018-12-18T09:31:17.021Z,100159.22
2018-12-18T09:36:22.327Z,100157.37
2018-12-18T09:41:29.850Z,100156.90
2018-12-18T09:46:34.849Z,100150.23
2018-12-18T09:51:39.805Z,100143.78
2018-12-18T09:56:50.398Z,100142.05
2018-12-18T10:01:55.434Z,100136.84
2018-12-18T10:07:00.383Z,100129.79
2018-12-18T10:12:05.711Z,100135.42
2018-12-18T10:17:11.020Z,100123.13
2018-12-18T10:22:15.963Z,100138.41
2018-12-18T10:27:21.318Z,100128.93
2018-12-18T10:32:26.273Z,100126.67
2018-12-18T10:37:31.595Z,100135.40
2018-12-18T10:42:36.908Z,100135.84
2018-12-18T10:47:43.070Z,100138.08
2018-12-18T10:52:48.231Z,100125.70
2018-12-18T10:57:53.408Z,100127.49
2018-12-18T11:04:53.134Z,100121.92
2018-12-18T11:09:58.101Z,100115.14
2018-12-18T11:15:05.703Z,100115.52
2018-12-18T11:20:10.699Z,100105.83
2018-12-18T11:25:15.624Z,100104.87
2018-12-18T11:30:20.829Z,100092.36
2018-12-18T11:35:25.788Z,100091.61
2018-12-18T11:40:30.816Z,100079.41
2018-12-18T11:45:38.422Z,100068.20
2018-12-18T11:50:43.848Z,100059.30
2018-12-18T11:55:49.349Z,100067.19
2018-12-18T12:00:54.423Z,100050.02
2018-12-18T12:06:00.037Z,100051.54
2018-12-18T12:11:06.289Z,100033.87
2018-12-18T12:16:11.411Z,100031.45
2018-12-18T12:21:16.245Z,100021.08
2018-12-18T12:26:26.342Z,100024.30
2018-12-18T12:31:31.331Z,100011.42
2018-12-18T12:36:36.583Z,100005.08
2018-12-18T12:41:41.523Z,99995.25
2018-12-18T12:46:46.692Z,99989.39
2018-12-18T12:51:51.890Z,99979.07
2018-12-18T12:56:56.913Z,99985.38
2018-12-18T13:02:02.319Z,99990.30
2018-12-18T13:07:07.655Z,99988.27
2018-12-18T13:12:13.099Z,99975.11
2018-12-18T13:17:18.338Z,99974.39
2018-12-18T13:22:23.881Z,99976.89
2018-12-18T13:27:29.416Z,99977.69
2018-12-18T13:32:36.262Z,99971.52
2018-12-18T13:37:41.591Z,99974.41
2018-12-18T13:42:47.376Z,99961.88
2018-12-18T13:47:52.332Z,99955.40
2018-12-18T13:52:57.834Z,99955.42
2018-12-18T13:58:04.014Z,99961.64
2018-12-18T14:03:09.315Z,99948.77
2018-12-18T14:08:14.354Z,99956.55
2018-12-18T14:13:19.290Z,99951.16
2018-12-18T14:18:25.557Z,99948.85
2018-12-18T14:23:30.782Z,99929.91
2018-12-18T14:28:35.943Z,99942.73
2018-12-18T14:38:52.638Z,99941.70
2018-12-18T14:43:57.656Z,99953.23
2018-12-18T14:49:02.723Z,99932.55
2018-12-18T14:54:09.664Z,99948.73
2018-12-18T14:59:16.230Z,99947.70
2018-12-18T15:04:21.226Z,99938.61
2018-12-18T15:09:26.790Z,99944.40
2018-12-18T15:14:31.721Z,99940.16
2018-12-18T15:19:36.649Z,99928.70
2018-12-18T15:24:41.743Z,99930.91
2018-12-18T15:29:47.077Z,99933.97
2018-12-18T15:34:51.994Z,99932.86
2018-12-18T15:39:57.198Z,99929.62
2018-12-18T15:45:02.438Z,99932.44
2018-12-18T15:50:09.280Z,99932.94
2018-12-18T15:55:14.799Z,99919.58
2018-12-18T16:00:19.827Z,99942.93
2018-12-18T16:05:25.675Z,99943.79
2018-12-18T16:10:38.880Z,99922.08
2018-12-18T16:15:44.622Z,99920.04
2018-12-18T16:20:49.713Z,99924.08
2018-12-18T16:25:55.797Z,99933.58
2018-12-18T16:31:00.878Z,99929.91
2018-12-18T16:36:06.789Z,99929.98
2018-12-18T16:41:12.623Z,99935.33
2018-12-18T16:46:18.135Z,99936.09
2018-12-18T16:51:25.201Z,99940.88
2018-12-18T16:56:31.445Z,99940.42
2018-12-18T17:01:36.543Z,99939.02
2018-12-18T17:06:41.560Z,99945.80
2018-12-18T17:11:46.707Z,99949.38
2018-12-18T17:16:52.524Z,99950.57
2018-12-18T17:21:58.891Z,99961.88
2018-12-18T17:27:04.609Z,99969.52
2018-12-18T17:32:11.757Z,99976.20
2018-12-18T17:37:16.809Z,99971.58
2018-12-18T17:42:22.076Z,99969.99
2018-12-18T17:47:27.102Z,99975.90
2018-12-18T17:52:33.377Z,99975.06
2018-12-18T17:57:39.728Z,99971.53
2018-12-18T18:02:45.123Z,99970.33
2018-12-18T18:07:51.431Z,99963.75
2018-12-18T18:18:08.117Z,99944.39
2018-12-18T18:23:13.442Z,99931.91
2018-12-18T18:28:21.010Z,99913.62
2018-12-18T18:33:26.129Z,99914.21
2018-12-18T18:38:31.941Z,99922.95
2018-12-18T18:43:37.098Z,99917.93
2018-12-18T18:48:43.640Z,99919.84
2018-12-18T18:53:50.336Z,99918.33
2018-12-18T18:59:00.589Z,99914.09
2018-12-18T19:04:06.892Z,99915.55
2018-12-18T19:09:12.083Z,99912.56
2018-12-18T19:14:21.769Z,99914.74
2018-12-18T19:19:28.147Z,99906.97
2018-12-18T19:24:35.460Z,99910.08
2018-12-18T19:29:42.982Z,99899.67
2018-12-18T19:34:49.396Z,99893.53
2018-12-18T19:39:59.743Z,99890.16
2018-12-18T19:45:11.627Z,99882.26
2018-12-18T19:50:18.477Z,99867.62
2018-12-18T19:55:24.103Z,99862.70
2018-12-18T20:00:32.220Z,99840.44
2018-12-18T20:05:38.473Z,99841.56
2018-12-18T20:10:47.795Z,99832.67
2018-12-18T20:15:55.000Z,99817.89
2018-12-18T20:21:04.271Z,99818.47
2018-12-18T20:26:12.051Z,99811.95
2018-12-18T20:31:19.017Z,99813.48
2018-12-18T20:36:29.531Z,99811.69
2018-12-18T20:41:35.294Z,99796.28
2018-12-18T20:46:41.736Z,99789.46
2018-12-18T20:51:59.607Z,99779.50
2018-12-18T20:57:06.669Z,99775.52
2018-12-18T21:02:13.670Z,99763.13
2018-12-18T21:07:19.472Z,99756.94
2018-12-18T21:12:25.696Z,99733.03
2018-12-18T21:17:33.627Z,99726.92
2018-12-18T21:22:39.129Z,99708.33
2018-12-18T21:27:45.087Z,99697.44
2018-12-18T21:32:50.822Z,99696.30
2018-12-18T21:37:56.834Z,99700.52
2018-12-18T21:43:02.095Z,99705.50
2018-12-18T21:48:08.543Z,99704.80
2018-12-18T21:53:14.144Z,99696.85
2018-12-18T21:58:20.234Z,99704.17
2018-12-18T22:03:26.963Z,99681.41
2018-12-18T22:08:36.791Z,99683.92
2018-12-18T22:13:41.965Z,99674.52
2018-12-18T22:18:48.370Z,99672.14
2018-12-18T22:23:53.415Z,99668.48
2018-12-18T22:28:58.359Z,99656.03
2018-12-18T22:34:04.453Z,99649.72
2018-12-18T22:39:09.826Z,99637.97
2018-12-18T22:44:14.979Z,99642.89
2018-12-18T22:49:21.071Z,99638.41
2018-12-18T22:54:26.363Z,99628.72
2018-12-18T22:59:31.656Z,99611.31
2018-12-18T23:04:37.548Z,99605.67
2018-12-18T23:20:06.457Z,99605.31
2018-12-18T23:25:11.460Z,99589.92
2018-12-18T23:30:17.509Z,99582.20
2018-12-18T23:35:22.518Z,99568.78
2018-12-18T23:40:27.503Z,99558.09
2018-12-18T23:45:32.788Z,99554.61
2018-12-18T23:50:38.204Z,99552.06
2018-12-18T23:55:43.498Z,99539.14
